Time;durP1;ratioP1;P1;durP2;ratioP2;P2;SDS_P1;SDS_P2;PMS_P1;PMS_P2;Temp;Humidity;BMP_temperature;BMP_pressure;BME280_temperature;BME280_humidity;BME280_pressure;Samples;Min_cycle;Max_cycle;Signal;HPM_P1;HPM_P2
2022/03/19 08:28:51;;;;;;;;;;;;;;;8.25;58.54;98283.91;4230523;27;10259;-67
2022/03/19 08:30:53;;;;;;;;;;;;;;;8.17;58.35;98290.75;4223615;28;5754;-67
2022/03/19 08:32:55;;;;;;;;;;;;;;;8.34;58.30;98281.31;4224458;28;5815;-67
2022/03/19 08:34:57;;;;;;;;;;;;;;;8.42;57.82;98284.06;4229182;27;5734;-67
2022/03/19 08:36:59;;;;;;;;;;;;;;;8.48;57.67;98287.91;4216836;28;5779;-67
2022/03/19 08:41:21;;;;;;;;;;;;;;;8.51;56.65;98282.38;4214327;27;5978;-67
2022/03/19 08:43:22;;;;;;;;;;;;;;;8.51;56.74;98284.19;4227760;28;5523;-67
2022/03/19 08:45:24;;;;;;;;;;;;;;;8.55;57.59;98289.00;4222728;28;5543;-66
2022/03/19 08:47:26;;;;;;;;;;;;;;;8.40;57.60;98282.56;4230338;28;5981;-67
2022/03/19 08:49:27;;;;;;;;;;;;;;;8.46;57.88;98284.59;4216438;27;5736;-68
2022/03/19 08:51:39;;;;;;;;;;;;;;;8.74;57.66;98282.84;4227338;27;5676;-67
2022/03/19 08:53:41;;;;;;;;;;;;;;;8.73;56.97;98286.47;4224284;27;5686;-67
2022/03/19 08:55:43;;;;;;;;;;;;;;;8.77;57.26;98287.81;4225088;27;5703;-66
2022/03/19 08:57:45;;;;;;;;;;;;;;;8.89;57.14;98285.81;4223611;28;5699;-67
2022/03/19 08:59:47;;;;;;;;;;;;;;;8.86;56.84;98289.59;4228026;27;5930;-67
2022/03/19 09:02:09;;;;;;;;;;;;;;;8.83;57.28;98287.22;4228759;27;5753;-67
2022/03/19 09:04:12;;;;;;;;;;;;;;;8.87;56.73;98293.06;4224038;28;5699;-67
2022/03/19 09:06:14;;;;;;;;;;;;;;;8.60;57.70;98276.22;4227432;27;5684;-67
2022/03/19 09:08:16;;;;;;;;;;;;;;;8.81;57.20;98275.16;4227270;27;5686;-67
2022/03/19 09:10:18;;;;;;;;;;;;;;;8.77;57.15;98276.44;4230397;28;5837;-67
2022/03/19 09:12:22;;;;;;;;;;;;;;;8.82;57.04;98277.66;4225355;27;5991;-67
2022/03/19 09:14:24;;;;;;;;;;;;;;;8.80;56.75;98278.78;4213396;28;5772;-68
2022/03/19 09:16:26;;;;;;;;;;;;;;;8.94;56.86;98276.47;4219216;28;5765;-68
2022/03/19 09:18:28;;;;;;;;;;;;;;;9.08;56.38;98284.91;4229075;27;5969;-68
2022/03/19 09:20:29;;;;;;;;;;;;;;;8.99;56.80;98282.16;4216412;27;5701;-69
2022/03/19 09:22:32;;;;;;;;;;;;;;;8.92;56.94;98286.34;4228396;27;6115;-68
2022/03/19 09:24:33;;;;;;;;;;;;;;;8.89;56.86;98276.09;4229047;27;5729;-68
2022/03/19 09:26:35;;;;;;;;;;;;;;;9.09;56.87;98271.56;4226971;27;5901;-68
2022/03/19 09:28:39;;;;;;;;;;;;;;;9.18;56.46;98269.84;4228927;27;5796;-68
2022/03/19 09:30:41;;;;;;;;;;;;;;;8.99;55.96;98270.78;4223393;28;5720;-68
2022/03/19 09:32:43;;;;;;;;;;;;;;;8.97;56.80;98264.84;4218484;28;5746;-68
2022/03/19 09:35:06;;;;;;;;;;;;;;;9.02;56.41;98263.41;4211146;28;5701;-68
2022/03/19 09:37:07;;;;;;;;;;;;;;;8.99;55.85;98260.22;4212605;28;5747;-68
2022/03/19 09:39:09;;;;;;;;;;;;;;;8.70;56.37;98263.84;4217127;27;5818;-68
2022/03/19 09:41:11;;;;;;;;;;;;;;;8.95;56.63;98254.44;4218226;28;5682;-68
2022/03/19 09:43:13;;;;;;;;;;;;;;;9.00;56.15;98262.72;4218344;28;5683;-68
2022/03/19 09:45:18;;;;;;;;;;;;;;;9.06;55.87;98256.03;4208729;28;6144;-68
2022/03/19 09:47:20;;;;;;;;;;;;;;;9.04;56.12;98256.16;4214319;28;5675;-68
2022/03/19 09:49:21;;;;;;;;;;;;;;;9.16;55.83;98255.97;4217327;28;5659;-68
2022/03/19 09:51:27;;;;;;;;;;;;;;;9.21;55.79;98259.81;4205566;28;5663;-68
2022/03/19 09:53:30;;;;;;;;;;;;;;;9.26;55.93;98257.56;4212016;28;5893;-68
2022/03/19 09:55:59;;;;;;;;;;;;;;;9.24;55.52;98253.41;4218945;28;6313;-65
2022/03/19 09:58:02;;;;;;;;;;;;;;;9.03;55.66;98257.16;4214139;28;5694;-65
2022/03/19 10:00:05;;;;;;;;;;;;;;;9.15;55.30;98254.31;4202562;28;5925;-63
2022/03/19 10:02:10;;;;;;;;;;;;;;;9.24;55.41;98246.31;4209055;28;5918;-62
2022/03/19 10:04:15;;;;;;;;;;;;;;;9.23;54.07;98249.94;4211849;28;5778;-62
2022/03/19 10:08:40;;;;;;;;;;;;;;;9.28;54.47;98239.75;4209162;28;5786;-64
2022/03/19 10:10:42;;;;;;;;;;;;;;;9.22;54.77;98239.53;4212653;28;5762;-61
2022/03/19 10:12:45;;;;;;;;;;;;;;;9.31;55.23;98238.66;4214878;28;5901;-67
2022/03/19 10:14:57;;;;;;;;;;;;;;;9.38;55.54;98244.16;4216665;28;5809;-62
2022/03/19 10:16:59;;;;;;;;;;;;;;;9.29;54.75;98245.91;4213562;28;5798;-61
2022/03/19 10:19:04;;;;;;;;;;;;;;;9.39;54.87;98248.44;4202415;28;5689;-64
2022/03/19 10:21:14;;;;;;;;;;;;;;;9.37;54.47;98243.31;4211598;28;5698;-67
2022/03/19 10:23:28;;;;;;;;;;;;;;;9.38;54.24;98233.59;4207102;28;5757;-67
2022/03/19 10:25:31;;;;;;;;;;;;;;;9.41;54.21;98238.59;4200974;28;5684;-66
2022/03/19 10:27:38;;;;;;;;;;;;;;;9.17;54.79;98237.34;4212144;28;5699;-66
2022/03/19 10:29:41;;;;;;;;;;;;;;;9.22;54.47;98240.38;4216987;28;5789;-68
2022/03/19 10:31:45;;;;;;;;;;;;;;;9.26;54.49;98238.25;4205269;28;5684;-67
2022/03/19 10:33:49;;;;;;;;;;;;;;;9.27;55.35;98230.19;4203597;28;5658;-69
2022/03/19 10:35:50;;;;;;;;;;;;;;;9.34;55.25;98239.19;4215446;28;5774;-68
2022/03/19 10:37:53;;;;;;;;;;;;;;;9.37;55.30;98226.66;4213477;28;5703;-68
2022/03/19 10:39:54;;;;;;;;;;;;;;;9.46;55.34;98234.50;4200152;28;6350;-68
2022/03/19 10:41:58;;;;;;;;;;;;;;;9.16;56.18;98226.94;4199722;28;5708;-68
2022/03/19 10:44:10;;;;;;;;;;;;;;;8.90;56.32;98234.75;4211321;28;5753;-68
2022/03/19 10:46:13;;;;;;;;;;;;;;;9.21;56.33;98225.53;4213833;28;5788;-68
2022/03/19 10:48:23;;;;;;;;;;;;;;;9.41;56.01;98226.22;4199991;28;5697;-68
2022/03/19 10:50:24;;;;;;;;;;;;;;;9.45;56.71;98218.81;4232941;27;5608;-60
2022/03/19 10:52:27;;;;;;;;;;;;;;;9.34;56.48;98217.22;4200473;28;5859;-60
2022/03/19 10:54:30;;;;;;;;;;;;;;;9.13;57.02;98214.06;4200064;28;7273;-59
2022/03/19 10:56:32;;;;;;;;;;;;;;;9.21;57.65;98204.41;4203883;28;5695;-60
2022/03/19 10:58:35;;;;;;;;;;;;;;;9.24;57.47;98205.91;4217292;28;5675;-60
2022/03/19 11:00:40;;;;;;;;;;;;;;;9.26;57.36;98202.13;4208191;28;5740;-60
2022/03/19 11:02:48;;;;;;;;;;;;;;;9.30;57.11;98205.31;4210071;28;5664;-60
2022/03/19 11:04:51;;;;;;;;;;;;;;;9.28;57.47;98197.53;4206545;28;5689;-60
2022/03/19 11:06:54;;;;;;;;;;;;;;;9.37;57.61;98197.63;4214671;28;5684;-60
2022/03/19 11:09:04;;;;;;;;;;;;;;;9.45;57.33;98195.88;4215387;28;5779;-60
2022/03/19 11:11:18;;;;;;;;;;;;;;;9.66;56.50;98185.00;4200386;28;5719;-60
2022/03/19 11:13:25;;;;;;;;;;;;;;;9.60;56.53;98188.25;4200449;27;5812;-60
2022/03/19 11:15:32;;;;;;;;;;;;;;;9.58;56.69;98183.13;4199533;28;5763;-61
2022/03/19 11:17:37;;;;;;;;;;;;;;;9.70;56.49;98182.88;4198293;28;5774;-59
2022/03/19 11:19:39;;;;;;;;;;;;;;;9.65;56.99;98183.34;4208820;28;5928;-60
2022/03/19 11:21:42;;;;;;;;;;;;;;;9.72;56.43;98179.09;4205465;28;5699;-74
2022/03/19 11:24:10;;;;;;;;;;;;;;;9.72;56.62;98188.84;4212905;28;5774;-73
2022/03/19 11:26:15;;;;;;;;;;;;;;;9.68;56.50;98182.22;4209825;28;5142;-74
2022/03/19 11:28:18;;;;;;;;;;;;;;;9.71;56.50;98176.63;4207967;28;7795;-73
2022/03/19 11:30:25;;;;;;;;;;;;;;;9.79;57.10;98174.88;4206525;28;5861;-72
2022/03/19 11:32:27;;;;;;;;;;;;;;;9.81;57.20;98178.19;4208147;28;6302;-72
2022/03/19 11:34:47;;;;;;;;;;;;;;;9.82;56.72;98174.56;4208711;28;5117;-72
2022/03/19 11:37:00;;;;;;;;;;;;;;;9.96;57.48;98167.88;4210942;28;5761;-64
2022/03/19 11:39:06;;;;;;;;;;;;;;;10.05;57.58;98169.59;4206950;28;5780;-63
2022/03/19 11:41:29;;;;;;;;;;;;;;;10.16;56.96;98169.31;4207280;28;5859;-63
2022/03/19 11:43:31;;;;;;;;;;;;;;;10.13;56.91;98164.34;4197133;28;5826;-66
2022/03/19 11:45:38;;;;;;;;;;;;;;;10.25;56.42;98170.22;4196586;28;5146;-64
2022/03/19 11:47:39;;;;;;;;;;;;;;;10.31;57.21;98164.31;4199316;28;5834;-67
2022/03/19 11:49:54;;;;;;;;;;;;;;;10.23;56.89;98164.28;4213335;28;5880;-65
2022/03/19 11:51:56;;;;;;;;;;;;;;;10.23;56.75;98152.88;4202021;28;5881;-64
2022/03/19 11:54:01;;;;;;;;;;;;;;;10.33;56.95;98156.22;4196793;28;5787;-65
2022/03/19 11:56:03;;;;;;;;;;;;;;;10.37;56.29;98147.00;4199454;28;6399;-65
2022/03/19 11:58:08;;;;;;;;;;;;;;;10.36;56.32;98137.41;4203875;28;5799;-64
2022/03/19 12:00:10;;;;;;;;;;;;;;;10.08;56.70;98142.88;4210643;28;5839;-61
2022/03/19 12:02:14;;;;;;;;;;;;;;;10.33;55.93;98138.56;4210414;28;5777;-62
2022/03/19 12:04:17;;;;;;;;;;;;;;;10.33;56.96;98133.28;4210462;28;5770;-62
2022/03/19 12:06:33;;;;;;;;;;;;;;;10.31;57.96;98132.59;4196885;28;5781;-66
2022/03/19 12:08:48;;;;;;;;;;;;;;;10.34;58.30;98137.56;4200319;28;5787;-66
2022/03/19 12:10:59;;;;;;;;;;;;;;;10.39;57.68;98127.34;4196787;28;5865;-65
2022/03/19 12:13:20;;;;;;;;;;;;;;;10.48;56.88;98118.44;4202105;28;5803;-65
2022/03/19 12:15:33;;;;;;;;;;;;;;;10.50;56.66;98118.28;4197203;28;5794;-62
2022/03/19 12:17:35;;;;;;;;;;;;;;;10.55;56.71;98112.53;4198549;28;5811;-66
2022/03/19 12:19:54;;;;;;;;;;;;;;;10.61;56.81;98118.00;4209500;28;5754;-69
2022/03/19 12:21:56;;;;;;;;;;;;;;;10.61;56.85;98104.75;4204892;28;5888;-65
2022/03/19 12:24:09;;;;;;;;;;;;;;;10.64;55.53;98100.97;4211282;28;5826;-65
2022/03/19 12:26:13;;;;;;;;;;;;;;;10.60;55.47;98097.00;4211191;28;5761;-67
2022/03/19 12:28:16;;;;;;;;;;;;;;;9.91;57.87;98091.75;4207885;28;5915;-65
2022/03/19 12:30:18;;;;;;;;;;;;;;;9.98;57.75;98091.97;4211849;28;5786;-68
2022/03/19 12:32:22;;;;;;;;;;;;;;;10.25;56.72;98090.13;4212435;28;5818;-69
2022/03/19 12:34:25;;;;;;;;;;;;;;;10.09;57.26;98080.28;4196607;28;5791;-66
2022/03/19 12:36:27;;;;;;;;;;;;;;;10.33;56.93;98072.47;4212088;28;5836;-67
2022/03/19 12:38:32;;;;;;;;;;;;;;;10.36;56.35;98066.84;4204717;28;5851;-69
2022/03/19 12:42:58;;;;;;;;;;;;;;;10.21;56.13;98057.88;4201076;28;5105;-60
2022/03/19 12:45:03;;;;;;;;;;;;;;;10.22;57.14;98064.00;4211733;28;5777;-61
2022/03/19 12:47:07;;;;;;;;;;;;;;;10.44;56.93;98058.97;4207231;28;5788;-62
2022/03/19 12:49:09;;;;;;;;;;;;;;;10.52;56.19;98058.13;4212473;28;5782;-64
2022/03/19 12:51:10;;;;;;;;;;;;;;;10.58;55.98;98059.31;4213387;28;5726;-69
2022/03/19 12:53:12;;;;;;;;;;;;;;;10.50;55.90;98045.06;4207079;28;5664;-61
2022/03/19 12:55:21;;;;;;;;;;;;;;;10.53;55.23;98051.03;4206940;28;5687;-65
2022/03/19 12:57:25;;;;;;;;;;;;;;;10.62;55.32;98034.19;4217987;28;5662;-61
2022/03/19 12:59:31;;;;;;;;;;;;;;;10.57;55.51;98028.56;4214492;28;5628;-62
2022/03/19 13:01:32;;;;;;;;;;;;;;;10.54;55.89;98028.91;4221703;28;5666;-61
2022/03/19 13:03:34;;;;;;;;;;;;;;;10.63;55.73;98025.25;4210139;28;5717;-64
2022/03/19 13:05:36;;;;;;;;;;;;;;;10.62;55.84;98018.31;4213325;28;6572;-63
2022/03/19 13:07:38;;;;;;;;;;;;;;;10.47;55.80;98020.78;4212357;28;5781;-69
2022/03/19 13:09:41;;;;;;;;;;;;;;;10.64;55.76;98006.59;4204145;28;5851;-66
2022/03/19 13:11:47;;;;;;;;;;;;;;;10.67;55.78;98005.47;4212847;28;6396;-67
2022/03/19 13:13:49;;;;;;;;;;;;;;;10.85;55.33;98003.47;4199198;28;7752;-65
2022/03/19 13:15:52;;;;;;;;;;;;;;;10.86;55.44;97991.06;4210212;27;5822;-63
2022/03/19 13:17:55;;;;;;;;;;;;;;;10.87;54.96;97993.53;4211960;28;5798;-65
2022/03/19 13:20:10;;;;;;;;;;;;;;;11.03;55.34;97988.25;4199923;28;6176;-66
2022/03/19 13:22:19;;;;;;;;;;;;;;;11.00;54.79;97985.94;4213946;27;5865;-69
2022/03/19 13:24:22;;;;;;;;;;;;;;;10.65;55.58;97976.53;4201882;28;5939;-73
2022/03/19 13:26:27;;;;;;;;;;;;;;;10.92;56.20;97982.47;4207046;28;5724;-69
2022/03/19 13:28:29;;;;;;;;;;;;;;;10.99;55.90;97976.38;4205467;28;5750;-63
2022/03/19 13:30:31;;;;;;;;;;;;;;;11.13;55.21;97974.03;4208276;28;5837;-63
2022/03/19 13:32:33;;;;;;;;;;;;;;;11.18;55.21;97971.69;4203781;27;5767;-65
2022/03/19 13:34:37;;;;;;;;;;;;;;;10.77;55.07;97963.81;4211304;28;5872;-62
2022/03/19 13:36:39;;;;;;;;;;;;;;;10.35;56.32;97972.69;4210545;28;5915;-67
2022/03/19 13:38:40;;;;;;;;;;;;;;;10.69;56.37;97963.78;4212804;28;5958;-67
2022/03/19 13:40:44;;;;;;;;;;;;;;;10.90;56.23;97956.19;4206825;28;5838;-68
2022/03/19 13:42:46;;;;;;;;;;;;;;;11.03;55.38;97943.28;4203631;28;6854;-68
2022/03/19 13:44:58;;;;;;;;;;;;;;;11.02;55.09;97954.84;4215710;28;5835;-67
2022/03/19 13:47:05;;;;;;;;;;;;;;;11.05;55.02;97954.50;4210351;28;5699;-67
2022/03/19 13:49:16;;;;;;;;;;;;;;;11.07;54.92;97944.56;4202259;28;5799;-68
2022/03/19 13:51:18;;;;;;;;;;;;;;;11.08;54.48;97940.94;4208432;28;5758;-67
2022/03/19 13:53:20;;;;;;;;;;;;;;;10.88;54.66;97937.00;4199575;28;5791;-68
2022/03/19 13:55:22;;;;;;;;;;;;;;;10.99;54.37;97936.66;4209199;28;5915;-67
2022/03/19 13:57:34;;;;;;;;;;;;;;;10.96;54.57;97930.88;4204991;28;5790;-68
2022/03/19 13:59:35;;;;;;;;;;;;;;;10.77;54.95;97929.41;4215137;28;5765;-68
2022/03/19 14:01:37;;;;;;;;;;;;;;;10.93;54.88;97924.09;4212568;28;5766;-68
2022/03/19 14:03:40;;;;;;;;;;;;;;;10.99;54.34;97915.50;4213522;28;5913;-68
2022/03/19 14:05:48;;;;;;;;;;;;;;;11.04;54.69;97913.16;4231842;27;5853;-67
2022/03/19 14:07:52;;;;;;;;;;;;;;;10.89;54.36;97908.75;4198891;28;5795;-68
2022/03/19 14:09:58;;;;;;;;;;;;;;;11.00;55.00;97911.84;4206012;28;5885;-67
2022/03/19 14:12:02;;;;;;;;;;;;;;;11.03;54.83;97914.16;4212944;28;5749;-68
2022/03/19 14:14:06;;;;;;;;;;;;;;;11.14;54.99;97905.03;4213525;28;6724;-69
2022/03/19 14:16:13;;;;;;;;;;;;;;;11.24;54.51;97894.25;4213934;28;6069;-68
2022/03/19 14:18:29;;;;;;;;;;;;;;;11.21;53.94;97891.94;4213556;28;5737;-67
2022/03/19 14:20:30;;;;;;;;;;;;;;;11.19;54.27;97900.06;4213468;28;5789;-68
2022/03/19 14:22:32;;;;;;;;;;;;;;;11.22;54.49;97889.16;4214641;28;6421;-68
2022/03/19 14:24:34;;;;;;;;;;;;;;;11.30;54.75;97888.28;4213810;28;6634;-69
2022/03/19 14:26:35;;;;;;;;;;;;;;;11.20;53.91;97887.63;4218392;28;5788;-69
2022/03/19 14:28:37;;;;;;;;;;;;;;;11.23;54.34;97885.50;4211841;28;5880;-69
2022/03/19 14:30:41;;;;;;;;;;;;;;;11.04;53.94;97885.88;4202514;28;5767;-70
2022/03/19 14:32:43;;;;;;;;;;;;;;;11.20;54.25;97877.88;4212982;28;5683;-69
2022/03/19 14:34:44;;;;;;;;;;;;;;;11.33;54.14;97869.41;4207808;28;5687;-69
2022/03/19 14:36:46;;;;;;;;;;;;;;;11.37;54.19;97870.72;4207095;28;5859;-69
2022/03/19 14:38:49;;;;;;;;;;;;;;;11.32;53.81;97862.44;4206547;28;5666;-70
2022/03/19 14:40:52;;;;;;;;;;;;;;;11.25;54.54;97872.09;4217351;28;5674;-69
2022/03/19 14:42:54;;;;;;;;;;;;;;;11.32;54.39;97867.75;4218069;28;5706;-69
2022/03/19 14:44:59;;;;;;;;;;;;;;;11.25;53.89;97862.31;4214135;27;5777;-70
2022/03/19 14:47:01;;;;;;;;;;;;;;;11.19;54.38;97859.53;4200921;28;5764;-68
2022/03/19 14:49:03;;;;;;;;;;;;;;;10.78;55.00;97859.66;4209133;28;5684;-69
2022/03/19 14:51:06;;;;;;;;;;;;;;;10.96;55.22;97857.59;4213025;28;5691;-69
2022/03/19 14:53:07;;;;;;;;;;;;;;;11.14;55.21;97851.28;4217956;28;5679;-69
2022/03/19 14:55:09;;;;;;;;;;;;;;;11.29;54.83;97849.56;4217820;28;5801;-70
2022/03/19 14:57:11;;;;;;;;;;;;;;;11.33;54.84;97853.53;4216850;28;5730;-69
2022/03/19 14:59:14;;;;;;;;;;;;;;;11.36;54.44;97843.41;4217328;28;5714;-70
2022/03/19 15:01:16;;;;;;;;;;;;;;;11.37;54.40;97845.06;4212476;28;6874;-69
2022/03/19 15:03:20;;;;;;;;;;;;;;;11.44;54.54;97839.06;4200620;28;6516;-67
2022/03/19 15:05:22;;;;;;;;;;;;;;;11.47;54.53;97828.97;4201115;27;5778;-69
2022/03/19 15:07:26;;;;;;;;;;;;;;;11.47;54.31;97838.75;4199039;28;5702;-69
2022/03/19 15:09:28;;;;;;;;;;;;;;;11.45;54.39;97833.63;4200416;28;5768;-69
2022/03/19 15:11:30;;;;;;;;;;;;;;;11.45;54.23;97833.63;4201127;28;5701;-70
2022/03/19 15:13:33;;;;;;;;;;;;;;;11.50;54.19;97827.78;4200850;28;5744;-69
2022/03/19 15:15:34;;;;;;;;;;;;;;;11.44;54.71;97825.81;4200863;28;5700;-70
2022/03/19 15:17:37;;;;;;;;;;;;;;;11.49;54.34;97821.69;4200871;28;5841;-69
2022/03/19 15:19:39;;;;;;;;;;;;;;;11.48;54.50;97820.03;4213589;28;5721;-69
2022/03/19 15:21:41;;;;;;;;;;;;;;;11.50;54.47;97823.31;4217496;28;6318;-69
2022/03/19 15:23:43;;;;;;;;;;;;;;;11.48;54.51;97820.03;4216700;28;5671;-69
2022/03/19 15:25:45;;;;;;;;;;;;;;;11.53;55.24;97817.66;4217582;28;5758;-69
2022/03/19 15:27:48;;;;;;;;;;;;;;;11.53;54.63;97820.31;4212982;28;5831;-69
2022/03/19 15:29:52;;;;;;;;;;;;;;;11.60;55.44;97813.34;4215649;28;5675;-69
2022/03/19 15:31:53;;;;;;;;;;;;;;;11.64;54.59;97809.34;4208601;27;5650;-69
2022/03/19 15:33:56;;;;;;;;;;;;;;;11.63;54.71;97799.75;4215021;28;5696;-69
2022/03/19 15:36:06;;;;;;;;;;;;;;;11.61;54.45;97807.03;4206926;28;5783;-69
2022/03/19 15:38:09;;;;;;;;;;;;;;;11.61;54.28;97804.38;4215259;28;5689;-69
2022/03/19 15:40:12;;;;;;;;;;;;;;;11.47;54.56;97805.13;4214556;28;5679;-68
2022/03/19 15:42:14;;;;;;;;;;;;;;;11.47;53.98;97801.66;4217138;28;5783;-69
2022/03/19 15:44:15;;;;;;;;;;;;;;;11.37;54.92;97799.22;4217231;28;5116;-69
2022/03/19 15:46:19;;;;;;;;;;;;;;;11.40;55.63;97800.72;4201407;28;5787;-69
2022/03/19 15:48:21;;;;;;;;;;;;;;;11.35;55.65;97799.41;4214359;28;6354;-69
2022/03/19 15:50:23;;;;;;;;;;;;;;;11.48;55.71;97796.19;4218298;28;5866;-69
2022/03/19 15:52:25;;;;;;;;;;;;;;;11.54;55.63;97792.84;4215256;28;5750;-70
2022/03/19 15:54:27;;;;;;;;;;;;;;;11.58;55.35;97788.84;4203220;28;5696;-68
2022/03/19 15:56:28;;;;;;;;;;;;;;;11.28;56.61;97784.38;4200428;28;6047;-70
2022/03/19 15:58:30;;;;;;;;;;;;;;;11.42;56.38;97788.94;4199788;28;5854;-74
2022/03/19 16:00:32;;;;;;;;;;;;;;;11.50;56.08;97794.19;4200326;28;5853;-75
2022/03/19 16:02:34;;;;;;;;;;;;;;;11.50;56.42;97783.59;4202124;28;6221;-70
2022/03/19 16:04:35;;;;;;;;;;;;;;;11.53;55.94;97782.41;4210469;28;5743;-70
2022/03/19 16:06:37;;;;;;;;;;;;;;;11.53;55.99;97780.59;4201307;28;5685;-70
2022/03/19 16:08:39;;;;;;;;;;;;;;;11.59;55.80;97782.56;4203387;28;5799;-76
2022/03/19 16:10:41;;;;;;;;;;;;;;;11.62;55.43;97784.84;4218297;28;5815;-70
2022/03/19 16:12:44;;;;;;;;;;;;;;;11.58;55.71;97777.44;4212732;28;5682;-71
2022/03/19 16:14:49;;;;;;;;;;;;;;;11.54;55.45;97766.34;4220853;28;5698;-66
2022/03/19 16:16:54;;;;;;;;;;;;;;;11.58;55.78;97772.97;4214202;28;5766;-66
2022/03/19 16:18:56;;;;;;;;;;;;;;;11.56;55.99;97768.84;4203751;28;5693;-64
2022/03/19 16:20:57;;;;;;;;;;;;;;;11.49;55.59;97766.06;4199607;28;5771;-65
2022/03/19 16:22:59;;;;;;;;;;;;;;;11.55;55.41;97778.63;4199697;28;5786;-67
2022/03/19 16:25:02;;;;;;;;;;;;;;;11.51;55.18;97772.00;4199921;28;5684;-67
2022/03/19 16:27:04;;;;;;;;;;;;;;;11.53;55.28;97772.66;4215015;28;5711;-66
2022/03/19 16:29:06;;;;;;;;;;;;;;;11.41;55.74;97765.28;4211940;28;5712;-66
2022/03/19 16:31:07;;;;;;;;;;;;;;;11.48;55.82;97767.06;4203930;28;5772;-67
2022/03/19 16:33:12;;;;;;;;;;;;;;;11.48;55.94;97761.78;4199449;28;5794;-76
2022/03/19 16:35:17;;;;;;;;;;;;;;;11.51;55.83;97766.72;4208466;28;5677;-69
2022/03/19 16:37:21;;;;;;;;;;;;;;;11.49;55.72;97763.41;4216609;28;5769;-67
2022/03/19 16:39:23;;;;;;;;;;;;;;;11.47;55.46;97757.47;4217287;28;5682;-71
2022/03/19 16:41:25;;;;;;;;;;;;;;;11.43;55.21;97758.81;4213902;28;5671;-71
2022/03/19 16:43:26;;;;;;;;;;;;;;;11.29;55.85;97755.09;4219608;28;5678;-67
2022/03/19 16:45:28;;;;;;;;;;;;;;;11.32;55.89;97761.84;4219434;28;5838;-66
2022/03/19 16:47:30;;;;;;;;;;;;;;;11.34;55.88;97758.06;4203619;28;5693;-66
2022/03/19 16:49:32;;;;;;;;;;;;;;;11.30;55.61;97755.91;4207126;28;5763;-68
2022/03/19 16:51:33;;;;;;;;;;;;;;;11.16;56.29;97756.66;4202967;28;5688;-71
2022/03/19 16:53:35;;;;;;;;;;;;;;;11.02;56.86;97751.09;4202999;28;5102;-67
2022/03/19 16:55:37;;;;;;;;;;;;;;;11.15;56.20;97755.00;4202764;28;5692;-68
2022/03/19 16:57:38;;;;;;;;;;;;;;;11.14;56.39;97762.13;4202701;28;6331;-69
2022/03/19 16:59:40;;;;;;;;;;;;;;;11.15;56.36;97761.13;4213572;28;5699;-66
2022/03/19 17:01:42;;;;;;;;;;;;;;;11.01;57.09;97752.09;4209861;28;5746;-69
2022/03/19 17:03:44;;;;;;;;;;;;;;;10.61;57.99;97757.53;4212824;28;6464;-66
2022/03/19 17:05:46;;;;;;;;;;;;;;;10.75;57.68;97759.47;4210491;28;5679;-65
2022/03/19 17:07:47;;;;;;;;;;;;;;;10.94;57.25;97759.06;4202326;28;5846;-67
2022/03/19 17:09:49;;;;;;;;;;;;;;;11.00;57.18;97768.16;4202275;28;5712;-68
2022/03/19 17:11:51;;;;;;;;;;;;;;;10.98;57.24;97764.84;4215550;28;5675;-66
2022/03/19 17:13:53;;;;;;;;;;;;;;;11.00;57.40;97763.69;4218354;28;5731;-67
2022/03/19 17:15:54;;;;;;;;;;;;;;;10.84;57.77;97761.09;4217432;28;6345;-65
2022/03/19 17:17:57;;;;;;;;;;;;;;;10.92;57.65;97766.34;4217138;28;5802;-64
2022/03/19 17:20:00;;;;;;;;;;;;;;;10.96;57.35;97767.66;4218426;28;5787;-60
2022/03/19 17:22:04;;;;;;;;;;;;;;;10.94;57.41;97769.66;4218058;28;5795;-61
2022/03/19 17:24:05;;;;;;;;;;;;;;;10.88;57.80;97765.06;4213747;28;5802;-63
2022/03/19 17:26:07;;;;;;;;;;;;;;;10.67;58.35;97770.09;4206602;28;5885;-60
2022/03/19 17:28:09;;;;;;;;;;;;;;;10.79;57.79;97761.63;4205286;28;5795;-65
2022/03/19 17:30:14;;;;;;;;;;;;;;;10.82;57.81;97759.63;4209210;28;5734;-66
2022/03/19 17:32:16;;;;;;;;;;;;;;;10.78;57.86;97756.50;4206866;28;5786;-66
2022/03/19 17:34:18;;;;;;;;;;;;;;;10.87;57.87;97757.28;4213197;28;5770;-65
2022/03/19 17:36:20;;;;;;;;;;;;;;;10.79;57.82;97753.69;4212354;27;5761;-67
2022/03/19 17:38:25;;;;;;;;;;;;;;;10.78;57.69;97759.16;4213813;28;5798;-66
2022/03/19 17:40:27;;;;;;;;;;;;;;;10.78;57.96;97753.84;4211275;28;5765;-66
2022/03/19 17:42:28;;;;;;;;;;;;;;;10.81;58.15;97757.97;4211850;28;5777;-67
2022/03/19 17:44:30;;;;;;;;;;;;;;;10.79;58.06;97755.50;4211549;28;5766;-67
2022/03/19 17:46:32;;;;;;;;;;;;;;;10.70;57.94;97753.88;4209537;28;5801;-65
2022/03/19 17:48:33;;;;;;;;;;;;;;;10.72;57.97;97757.16;4212686;28;5830;-67
2022/03/19 17:50:35;;;;;;;;;;;;;;;10.71;58.17;97748.41;4208042;28;5781;-66
2022/03/19 17:52:37;;;;;;;;;;;;;;;10.71;58.07;97752.88;4211421;28;5801;-64
2022/03/19 17:54:39;;;;;;;;;;;;;;;10.73;58.09;97757.00;4214708;28;5778;-63
2022/03/19 17:56:41;;;;;;;;;;;;;;;10.72;57.98;97755.34;4213559;28;5675;-63
2022/03/19 17:58:42;;;;;;;;;;;;;;;10.70;57.89;97751.22;4213795;28;5932;-63
2022/03/19 18:00:44;;;;;;;;;;;;;;;10.69;58.27;97747.75;4211826;28;5774;-63
2022/03/19 18:02:48;;;;;;;;;;;;;;;10.70;57.94;97756.50;4214215;28;6479;-63
2022/03/19 18:04:50;;;;;;;;;;;;;;;10.69;58.14;97758.34;4214220;28;5773;-63
2022/03/19 18:06:55;;;;;;;;;;;;;;;10.70;58.25;97753.88;4215290;28;5771;-66
2022/03/19 18:08:57;;;;;;;;;;;;;;;10.69;58.09;97755.69;4214628;28;5876;-64
2022/03/19 18:10:59;;;;;;;;;;;;;;;10.71;58.07;97751.06;4216295;28;5766;-63
2022/03/19 18:13:01;;;;;;;;;;;;;;;10.73;57.89;97758.81;4209983;28;5966;-66
2022/03/19 18:15:03;;;;;;;;;;;;;;;10.77;57.57;97757.50;4214830;28;5177;-65
2022/03/19 18:17:05;;;;;;;;;;;;;;;10.74;57.84;97763.09;4208303;28;5663;-65
2022/03/19 18:19:07;;;;;;;;;;;;;;;10.69;58.20;97760.16;4206566;28;5713;-65
2022/03/19 18:21:09;;;;;;;;;;;;;;;10.54;58.75;97749.47;4206357;28;5996;-65
2022/03/19 18:23:10;;;;;;;;;;;;;;;10.67;58.49;97754.22;4209360;28;5101;-65
2022/03/19 18:25:12;;;;;;;;;;;;;;;10.67;58.04;97752.41;4217152;28;5692;-65
2022/03/19 18:27:14;;;;;;;;;;;;;;;10.66;58.05;97753.41;4214090;28;5772;-65
2022/03/19 18:29:18;;;;;;;;;;;;;;;10.60;58.65;97758.53;4207978;28;5786;-65
2022/03/19 18:31:20;;;;;;;;;;;;;;;10.63;58.84;97747.59;4208391;28;5822;-65
2022/03/19 18:33:21;;;;;;;;;;;;;;;10.57;59.21;97757.06;4206208;28;5913;-66
2022/03/19 18:35:23;;;;;;;;;;;;;;;10.55;59.77;97763.50;4204799;28;5859;-65
2022/03/19 18:37:25;;;;;;;;;;;;;;;10.55;59.78;97756.41;4211110;28;6361;-66
2022/03/19 18:39:27;;;;;;;;;;;;;;;10.61;59.57;97746.94;4215951;28;5679;-66
2022/03/19 18:41:29;;;;;;;;;;;;;;;10.58;59.72;97752.59;4205708;28;5819;-66
2022/03/19 18:43:31;;;;;;;;;;;;;;;10.59;59.11;97760.34;4209273;28;5739;-66
2022/03/19 18:45:32;;;;;;;;;;;;;;;10.58;59.32;97747.31;4209812;28;5672;-66
2022/03/19 18:47:34;;;;;;;;;;;;;;;10.64;59.31;97750.06;4205075;28;5873;-66
2022/03/19 18:49:38;;;;;;;;;;;;;;;10.64;59.77;97751.91;4208836;28;5901;-66
2022/03/19 18:51:39;;;;;;;;;;;;;;;10.61;59.70;97750.41;4204278;28;5728;-66
2022/03/19 18:53:41;;;;;;;;;;;;;;;10.59;59.50;97749.78;4205819;28;5791;-66
2022/03/19 18:55:43;;;;;;;;;;;;;;;10.54;59.88;97746.81;4205804;28;5752;-66
2022/03/19 18:57:45;;;;;;;;;;;;;;;10.53;59.72;97739.84;4203721;28;5927;-65
2022/03/19 18:59:47;;;;;;;;;;;;;;;10.54;59.65;97740.72;4204061;28;5795;-66
2022/03/19 19:01:49;;;;;;;;;;;;;;;10.57;59.72;97740.38;4205414;28;5806;-67
2022/03/19 19:03:51;;;;;;;;;;;;;;;10.60;59.64;97735.56;4201429;28;5728;-69
2022/03/19 19:05:53;;;;;;;;;;;;;;;10.57;59.95;97740.38;4210593;28;5685;-67
2022/03/19 19:07:54;;;;;;;;;;;;;;;10.60;59.90;97740.03;4204984;28;5831;-67
2022/03/19 19:09:56;;;;;;;;;;;;;;;10.54;60.13;97730.13;4212250;28;5683;-65
2022/03/19 19:11:58;;;;;;;;;;;;;;;10.43;61.19;97732.16;4206581;28;5771;-66
2022/03/19 19:13:59;;;;;;;;;;;;;;;10.15;61.73;97736.94;4207322;28;5692;-68
2022/03/19 19:16:05;;;;;;;;;;;;;;;10.17;62.17;97736.78;4207497;28;5680;-61
2022/03/19 19:18:09;;;;;;;;;;;;;;;10.34;61.01;97735.78;4205743;28;6109;-59
2022/03/19 19:20:11;;;;;;;;;;;;;;;10.37;60.36;97734.63;4205531;28;5883;-63
2022/03/19 19:22:13;;;;;;;;;;;;;;;10.36;60.28;97731.16;4202467;28;5820;-63
2022/03/19 19:24:15;;;;;;;;;;;;;;;10.29;60.23;97732.00;4205627;28;5805;-63
2022/03/19 19:26:18;;;;;;;;;;;;;;;10.35;59.93;97731.34;4207002;28;5889;-60
2022/03/19 19:28:19;;;;;;;;;;;;;;;10.29;59.73;97738.09;4202293;28;5849;-62
2022/03/19 19:30:21;;;;;;;;;;;;;;;10.17;60.35;97729.66;4203043;28;5932;-62